Time;durP1;ratioP1;P1;durP2;ratioP2;P2;SDS_P1;SDS_P2;PMS_P1;PMS_P2;Temp;Humidity;BMP_temperature;BMP_pressure;BME280_temperature;BME280_humidity;BME280_pressure;Samples;Min_cycle;Max_cycle;Signal;HPM_P1;HPM_P2
2022/01/03 00:00:10;;;;;;;21.83;1.52;;;8.60;99.90;;;;;;5059669;28;20064;-77
2022/01/03 00:02:36;;;;;;;8.25;1.05;;;8.50;99.90;;;;;;5060545;28;20032;-78
2022/01/03 00:05:02;;;;;;;0.45;0.43;;;8.60;99.90;;;;;;5059526;28;20712;-78
2022/01/03 00:07:28;;;;;;;7.43;0.85;;;8.60;99.90;;;;;;5059276;28;20059;-78
2022/01/03 00:09:54;;;;;;;6.03;1.10;;;8.60;99.90;;;;;;5058089;28;20503;-78
2022/01/03 00:12:20;;;;;;;6.07;1.02;;;8.60;99.90;;;;;;5059062;28;20061;-77
2022/01/03 00:14:48;;;;;;;2.25;1.27;;;8.50;99.90;;;;;;5058898;28;20032;-77
2022/01/03 00:17:14;;;;;;;9.93;1.58;;;8.60;99.90;;;;;;5058750;28;20083;-78
2022/01/03 00:19:39;;;;;;;1.52;0.95;;;8.60;99.90;;;;;;5059119;28;20075;-77
2022/01/03 00:22:07;;;;;;;1.33;0.43;;;8.60;99.90;;;;;;5059851;28;20052;-78
2022/01/03 00:24:35;;;;;;;10.45;1.55;;;8.60;99.90;;;;;;5061248;28;20071;-78
2022/01/03 00:27:04;;;;;;;1.65;1.17;;;8.60;99.90;;;;;;5062308;28;20503;-78
2022/01/03 00:29:43;;;;;;;0.80;0.50;;;8.60;99.90;;;;;;5056457;28;20408;-78
2022/01/03 00:32:10;;;;;;;2.13;0.82;;;8.60;99.90;;;;;;5043792;28;20045;-77
2022/01/03 00:34:37;;;;;;;4.63;1.13;;;8.60;99.90;;;;;;5043242;28;20095;-77
2022/01/03 00:37:06;;;;;;;0.45;0.45;;;8.50;99.90;;;;;;5043378;28;20106;-77
2022/01/03 00:39:32;;;;;;;4.18;1.55;;;8.50;99.90;;;;;;5042823;28;20072;-77
2022/01/03 00:41:58;;;;;;;2.40;1.67;;;8.50;99.90;;;;;;5043615;28;20045;-77
2022/01/03 00:44:25;;;;;;;12.75;2.95;;;8.60;99.90;;;;;;5044045;28;20099;-78
2022/01/03 00:46:53;;;;;;;0.55;0.55;;;8.50;99.90;;;;;;5043508;28;20049;-77
2022/01/03 00:49:19;;;;;;;1.98;1.17;;;8.50;99.90;;;;;;5042952;28;20048;-77
2022/01/03 00:51:45;;;;;;;4.93;1.45;;;8.60;99.90;;;;;;5043340;28;20045;-77
2022/01/03 00:54:10;;;;;;;2.63;1.05;;;8.60;99.90;;;;;;5041644;28;20052;-77
2022/01/03 00:56:43;;;;;;;9.65;1.13;;;8.50;99.90;;;;;;5042251;28;20064;-77
2022/01/03 00:59:36;;;;;;;17.05;2.35;;;8.60;99.90;;;;;;5041974;28;20059;-77
2022/01/03 01:02:03;;;;;;;1.30;1.23;;;8.60;99.90;;;;;;5043140;28;20051;-78
2022/01/03 01:04:29;;;;;;;7.53;1.17;;;8.60;99.90;;;;;;5043462;28;20064;-78
2022/01/03 01:06:57;;;;;;;3.70;0.95;;;8.60;99.90;;;;;;5042280;28;20048;-78
2022/01/03 01:09:25;;;;;;;13.43;1.38;;;8.60;99.90;;;;;;5042470;28;20041;-78
2022/01/03 01:11:56;;;;;;;1.20;1.02;;;8.60;99.90;;;;;;5043853;28;20213;-77
2022/01/03 01:14:27;;;;;;;1.10;1.02;;;8.60;99.90;;;;;;5042058;28;20049;-78
2022/01/03 01:16:53;;;;;;;0.60;0.60;;;8.70;99.90;;;;;;5042982;28;20124;-78
2022/01/03 01:19:20;;;;;;;4.78;1.10;;;8.70;99.90;;;;;;5043376;28;20188;-77
2022/01/03 01:21:49;;;;;;;28.63;2.45;;;8.70;99.90;;;;;;5043010;28;20045;-77
2022/01/03 01:24:16;;;;;;;10.88;1.00;;;8.70;99.90;;;;;;5040319;28;20072;-77
2022/01/03 01:29:27;;;;;;;12.75;0.57;;;8.70;99.90;;;;;;5046999;28;20502;-77
2022/01/03 01:31:57;;;;;;;7.75;1.00;;;8.70;99.90;;;;;;5061655;28;20045;-78
2022/01/03 01:34:26;;;;;;;1.55;1.42;;;8.70;99.90;;;;;;5062256;28;20123;-78
2022/01/03 01:36:54;;;;;;;16.27;2.50;;;8.70;99.90;;;;;;5061329;28;20131;-78
2022/01/03 01:39:23;;;;;;;8.30;1.42;;;8.80;99.90;;;;;;5061964;28;20040;-77
2022/01/03 01:41:54;;;;;;;20.67;2.90;;;8.80;99.90;;;;;;5062878;28;20094;-77
2022/01/03 01:44:22;;;;;;;2.03;1.05;;;8.80;99.90;;;;;;5061477;28;20049;-77
2022/01/03 01:46:53;;;;;;;4.55;1.35;;;8.80;99.90;;;;;;5062696;28;20099;-77
2022/01/03 01:49:24;;;;;;;1.13;0.90;;;8.80;99.90;;;;;;5062663;28;20051;-77
2022/01/03 01:52:01;;;;;;;6.68;1.42;;;8.80;99.90;;;;;;5062272;28;20105;-77
2022/01/03 01:54:36;;;;;;;1.33;0.75;;;8.70;99.90;;;;;;5060862;28;20578;-77
2022/01/03 01:57:07;;;;;;;2.28;1.27;;;8.70;99.90;;;;;;5062171;28;20487;-77
2022/01/03 01:59:44;;;;;;;1.70;1.23;;;8.70;99.90;;;;;;5062683;28;20139;-77
2022/01/03 02:02:16;;;;;;;5.43;1.17;;;8.70;99.90;;;;;;5060529;28;20044;-78
2022/01/03 02:04:47;;;;;;;15.50;1.92;;;8.70;99.90;;;;;;5071073;22;20020;-77
2022/01/03 02:07:44;;;;;;;11.02;1.58;;;8.70;99.90;;;;;;5039905;28;20083;-78
2022/01/03 02:10:15;;;;;;;8.63;1.48;;;8.70;99.90;;;;;;5041355;28;20052;-77
2022/01/03 02:12:43;;;;;;;3.13;0.98;;;8.70;99.90;;;;;;5042464;28;20044;-77
2022/01/03 02:15:16;;;;;;;5.28;2.38;;;8.70;99.90;;;;;;5041822;28;20045;-77
2022/01/03 02:17:47;;;;;;;7.88;1.88;;;8.70;99.90;;;;;;5042347;28;20642;-77
2022/01/03 02:20:15;;;;;;;16.45;1.52;;;8.70;99.90;;;;;;5040634;28;20053;-78
2022/01/03 02:22:42;;;;;;;1.85;1.55;;;8.70;99.90;;;;;;5042125;28;20041;-77
2022/01/03 02:25:10;;;;;;;4.13;1.05;;;8.60;99.90;;;;;;5039091;28;20053;-77
2022/01/03 02:27:37;;;;;;;7.30;2.05;;;8.70;99.90;;;;;;5041560;28;20479;-77
2022/01/03 02:30:05;;;;;;;6.00;1.95;;;8.60;99.90;;;;;;5041538;28;20044;-77
2022/01/03 02:32:31;;;;;;;8.50;3.03;;;8.60;99.90;;;;;;5041860;28;20390;-77
2022/01/03 02:34:56;;;;;;;5.78;2.17;;;8.60;99.90;;;;;;5040591;28;20040;-78
2022/01/03 02:37:23;;;;;;;32.42;3.72;;;8.60;99.90;;;;;;5041232;28;20127;-78
2022/01/03 02:39:51;;;;;;;14.55;2.60;;;8.60;99.90;;;;;;5056218;28;20045;-77
2022/01/03 02:42:20;;;;;;;12.77;1.23;;;8.60;99.90;;;;;;5056994;28;20045;-77
2022/01/03 02:44:46;;;;;;;8.02;1.33;;;8.60;99.90;;;;;;5041644;28;20102;-77
2022/01/03 02:47:12;;;;;;;18.90;3.03;;;8.60;99.90;;;;;;5040966;28;20045;-77
2022/01/03 02:49:37;;;;;;;7.28;1.13;;;8.60;99.90;;;;;;5056664;28;20041;-77
2022/01/03 02:52:03;;;;;;;14.60;3.15;;;8.60;99.90;;;;;;5041156;28;20037;-77
2022/01/03 02:54:29;;;;;;;8.32;2.53;;;8.60;99.90;;;;;;5040466;28;20073;-77
2022/01/03 02:56:56;;;;;;;6.57;1.52;;;8.60;99.90;;;;;;5041121;28;20041;-78
2022/01/03 02:59:22;;;;;;;13.77;3.03;;;8.60;99.90;;;;;;5041502;28;20159;-78
2022/01/03 03:01:48;;;;;;;5.80;1.48;;;8.60;99.90;;;;;;5041295;28;20045;-77
2022/01/03 03:04:14;;;;;;;9.43;2.30;;;8.60;99.90;;;;;;5041276;28;20128;-77
2022/01/03 03:06:40;;;;;;;12.85;1.08;;;8.50;99.90;;;;;;5040726;28;20529;-77
2022/01/03 03:09:07;;;;;;;7.13;1.55;;;8.60;99.90;;;;;;5055532;28;20048;-77
2022/01/03 03:11:35;;;;;;;0.60;0.60;;;8.50;99.90;;;;;;5040819;28;20048;-77
2022/01/03 03:14:01;;;;;;;27.38;1.85;;;8.50;99.90;;;;;;5040412;28;20398;-77
2022/01/03 03:16:27;;;;;;;6.30;1.55;;;8.50;99.90;;;;;;5041368;28;20289;-77
2022/01/03 03:18:53;;;;;;;14.50;2.15;;;8.50;99.90;;;;;;5040778;28;20037;-77
2022/01/03 03:21:19;;;;;;;7.38;2.13;;;8.60;99.90;;;;;;5041224;28;20060;-77
2022/01/03 03:23:45;;;;;;;19.58;3.15;;;8.60;99.90;;;;;;5040178;28;20552;-77
2022/01/03 03:26:11;;;;;;;8.18;1.85;;;8.60;99.90;;;;;;5040329;28;20566;-77
2022/01/03 03:28:37;;;;;;;4.57;1.77;;;8.50;99.90;;;;;;5056410;28;20048;-77
2022/01/03 03:31:02;;;;;;;3.28;1.85;;;8.60;99.90;;;;;;5040167;28;20502;-77
2022/01/03 03:33:32;;;;;;;13.68;0.82;;;8.50;99.90;;;;;;5040500;28;20032;-78
2022/01/03 03:35:59;;;;;;;13.25;2.83;;;8.60;99.90;;;;;;5040511;28;20124;-78
2022/01/03 03:38:25;;;;;;;9.40;2.13;;;8.50;99.90;;;;;;5039762;28;20037;-78
2022/01/03 03:41:00;;;;;;;3.28;1.88;;;8.50;99.90;;;;;;5041307;28;20049;-77
2022/01/03 03:43:25;;;;;;;17.08;2.85;;;8.50;99.90;;;;;;5039500;28;20041;-77
2022/01/03 03:45:51;;;;;;;6.75;1.30;;;8.50;99.90;;;;;;5041432;28;20098;-77
2022/01/03 03:48:18;;;;;;;27.20;3.33;;;8.50;99.90;;;;;;5040676;28;20040;-77
2022/01/03 03:50:44;;;;;;;6.03;1.30;;;8.60;99.90;;;;;;5040638;28;20041;-77
2022/01/03 03:53:10;;;;;;;10.25;1.02;;;8.60;99.90;;;;;;5039622;28;20098;-77
2022/01/03 03:55:36;;;;;;;1.20;1.10;;;8.60;99.90;;;;;;5039128;28;20053;-77
2022/01/03 03:58:03;;;;;;;11.48;1.23;;;8.60;99.90;;;;;;5040323;28;20051;-77
2022/01/03 04:00:29;;;;;;;12.95;1.48;;;8.50;99.90;;;;;;5044608;28;20052;-78
2022/01/03 04:02:55;;;;;;;2.92;1.20;;;8.50;99.90;;;;;;5044539;28;20094;-77
2022/01/03 04:05:20;;;;;;;9.07;2.15;;;8.50;99.90;;;;;;5045072;28;20446;-77
2022/01/03 04:07:46;;;;;;;0.55;0.55;;;8.50;99.90;;;;;;5042048;28;20064;-77
2022/01/03 04:10:15;;;;;;;17.52;1.90;;;8.50;99.90;;;;;;5043928;28;20051;-77
2022/01/03 04:12:42;;;;;;;8.38;2.08;;;8.50;99.90;;;;;;5042991;28;20075;-77
2022/01/03 04:15:08;;;;;;;12.57;3.03;;;8.50;99.90;;;;;;5044506;28;20114;-77
2022/01/03 04:17:34;;;;;;;26.10;3.60;;;8.50;99.90;;;;;;5044547;28;20037;-77
2022/01/03 04:20:00;;;;;;;8.35;1.73;;;8.50;99.90;;;;;;5043483;28;20390;-77
2022/01/03 04:22:25;;;;;;;15.93;2.72;;;8.50;99.90;;;;;;5044153;28;20037;-77
2022/01/03 04:24:51;;;;;;;4.53;1.33;;;8.50;99.90;;;;;;5043576;28;20111;-77
2022/01/03 04:27:17;;;;;;;11.90;2.03;;;8.40;99.90;;;;;;5042989;28;20052;-77
2022/01/03 04:29:43;;;;;;;9.75;2.53;;;8.40;99.90;;;;;;5018102;28;20054;-77
2022/01/03 04:32:08;;;;;;;10.13;2.33;;;8.40;99.90;;;;;;5022678;28;20041;-77
2022/01/03 04:34:34;;;;;;;7.30;1.33;;;8.40;99.90;;;;;;5023085;28;20045;-77
2022/01/03 04:36:59;;;;;;;18.65;2.15;;;8.40;99.90;;;;;;5023921;28;20049;-77
2022/01/03 04:39:25;;;;;;;1.80;0.98;;;8.40;99.90;;;;;;5022445;28;20755;-77
2022/01/03 04:41:51;;;;;;;0.95;0.88;;;8.40;99.90;;;;;;5024556;28;20131;-77
2022/01/03 04:44:16;;;;;;;8.52;0.82;;;8.40;99.90;;;;;;5024179;28;20042;-77
2022/01/03 04:46:43;;;;;;;14.60;2.67;;;8.40;99.90;;;;;;5023644;28;20396;-77
2022/01/03 04:49:08;;;;;;;3.30;1.75;;;8.40;99.90;;;;;;5023255;28;20117;-77
2022/01/03 04:51:34;;;;;;;23.02;3.10;;;8.40;99.90;;;;;;5023797;28;20133;-77
2022/01/03 04:54:01;;;;;;;5.78;1.25;;;8.40;99.90;;;;;;5022702;28;20495;-77
2022/01/03 04:56:29;;;;;;;1.77;1.20;;;8.40;99.90;;;;;;5023112;28;20088;-77
2022/01/03 04:58:55;;;;;;;20.15;1.77;;;8.40;99.90;;;;;;5023309;28;20045;-77
2022/01/03 05:01:22;;;;;;;15.35;2.08;;;8.40;99.90;;;;;;5024328;28;20041;-77
2022/01/03 05:03:49;;;;;;;2.40;1.23;;;8.40;99.90;;;;;;5023877;28;20076;-77
2022/01/03 05:06:17;;;;;;;4.18;2.33;;;8.40;99.90;;;;;;5021947;28;20582;-77
2022/01/03 05:08:42;;;;;;;17.73;2.50;;;8.40;99.90;;;;;;5022234;28;20046;-77
2022/01/03 05:11:08;;;;;;;9.80;1.80;;;8.40;99.90;;;;;;5022631;28;20046;-77
2022/01/03 05:13:34;;;;;;;6.53;2.25;;;8.40;99.90;;;;;;5023435;28;20046;-77
2022/01/03 05:16:00;;;;;;;27.10;2.53;;;8.40;99.90;;;;;;5023183;28;20435;-77
2022/01/03 05:18:26;;;;;;;5.55;1.67;;;8.40;99.90;;;;;;5023121;28;20531;-77
2022/01/03 05:20:52;;;;;;;3.95;2.55;;;8.40;99.90;;;;;;5022489;28;20049;-77
2022/01/03 05:23:18;;;;;;;8.30;2.13;;;8.40;99.90;;;;;;5022674;28;20041;-77
2022/01/03 05:25:43;;;;;;;13.70;2.08;;;8.40;99.90;;;;;;5023461;28;20099;-77
2022/01/03 05:28:10;;;;;;;4.18;1.98;;;8.40;99.90;;;;;;5022505;28;20552;-77
2022/01/03 05:30:35;;;;;;;2.67;1.48;;;8.40;99.90;;;;;;5037871;28;20053;-77
2022/01/03 05:33:01;;;;;;;34.67;2.58;;;8.40;99.90;;;;;;5040926;28;20110;-77
2022/01/03 05:35:26;;;;;;;14.02;1.58;;;8.40;99.90;;;;;;5043228;28;20041;-77
2022/01/03 05:37:52;;;;;;;7.88;2.75;;;8.40;99.90;;;;;;5041709;28;20049;-77
2022/01/03 05:40:18;;;;;;;2.92;1.65;;;8.40;99.90;;;;;;5034535;28;20387;-77
2022/01/03 05:42:46;;;;;;;4.70;2.22;;;8.40;99.90;;;;;;5031595;28;20343;-77
2022/01/03 05:45:12;;;;;;;9.55;2.05;;;8.40;99.90;;;;;;5029154;28;20330;-77
2022/01/03 05:47:40;;;;;;;3.55;1.27;;;8.40;99.90;;;;;;5035809;28;20041;-77
2022/01/03 05:50:06;;;;;;;4.90;1.60;;;8.40;99.90;;;;;;5042055;28;20052;-77
2022/01/03 05:52:33;;;;;;;6.38;2.10;;;8.40;99.90;;;;;;5041463;28;20457;-77
2022/01/03 05:54:59;;;;;;;15.77;2.17;;;8.40;99.90;;;;;;5041193;28;20037;-77
2022/01/03 05:57:24;;;;;;;4.88;2.28;;;8.40;99.90;;;;;;5041169;28;20178;-77
2022/01/03 05:59:50;;;;;;;3.05;1.70;;;8.40;99.90;;;;;;5042674;28;20112;-77
2022/01/03 06:02:16;;;;;;;6.75;1.85;;;8.40;99.90;;;;;;5042113;28;20441;-77
2022/01/03 06:07:20;;;;;;;19.08;3.33;;;8.40;99.90;;;;;;5041699;28;20480;-77
2022/01/03 06:09:46;;;;;;;7.38;2.22;;;8.50;99.90;;;;;;5042068;28;20063;-77
2022/01/03 06:12:12;;;;;;;16.35;2.67;;;8.40;99.90;;;;;;5042203;28;20057;-77
2022/01/03 06:14:38;;;;;;;42.85;2.55;;;8.40;99.90;;;;;;5041757;28;20041;-77
2022/01/03 06:17:05;;;;;;;5.50;1.63;;;8.40;99.90;;;;;;5041654;28;20049;-77
2022/01/03 06:19:33;;;;;;;9.68;2.67;;;8.40;99.90;;;;;;5040328;28;20060;-77
2022/01/03 06:21:58;;;;;;;11.85;2.17;;;8.40;99.90;;;;;;5041474;28;20760;-77
2022/01/03 06:24:24;;;;;;;17.30;3.20;;;8.40;99.90;;;;;;5041119;28;20060;-77
2022/01/03 06:26:50;;;;;;;5.68;1.85;;;8.40;99.90;;;;;;5041827;28;20056;-77
2022/01/03 06:29:18;;;;;;;13.90;3.08;;;8.40;99.90;;;;;;5037077;28;20111;-77
2022/01/03 06:31:44;;;;;;;22.33;3.08;;;8.40;99.90;;;;;;5021908;28;20037;-77
2022/01/03 06:34:10;;;;;;;2.92;1.15;;;8.40;99.90;;;;;;5021393;28;20496;-77
2022/01/03 06:36:35;;;;;;;5.85;1.80;;;8.40;99.90;;;;;;5028569;28;20519;-77
2022/01/03 06:39:02;;;;;;;11.20;1.17;;;8.40;99.90;;;;;;5039006;28;20068;-77
2022/01/03 06:41:27;;;;;;;7.10;1.88;;;8.40;99.90;;;;;;5039959;28;20650;-76
2022/01/03 06:43:53;;;;;;;16.88;2.40;;;8.40;99.90;;;;;;5039967;28;20072;-77
2022/01/03 06:46:19;;;;;;;6.00;1.90;;;8.40;99.90;;;;;;5040309;28;20037;-77
2022/01/03 06:48:46;;;;;;;18.33;2.67;;;8.40;99.90;;;;;;5040279;28;20098;-77
2022/01/03 06:51:12;;;;;;;13.23;3.97;;;8.40;99.90;;;;;;5039885;28;20045;-77
2022/01/03 06:53:39;;;;;;;10.10;2.78;;;8.40;99.90;;;;;;5039792;28;20095;-76
2022/01/03 06:56:04;;;;;;;19.77;3.25;;;8.40;99.90;;;;;;5040041;28;20048;-77
2022/01/03 06:58:31;;;;;;;10.13;3.10;;;8.40;99.90;;;;;;5039426;28;20388;-77
2022/01/03 07:00:57;;;;;;;9.10;2.55;;;8.40;99.90;;;;;;5039903;28;20107;-77
2022/01/03 07:03:22;;;;;;;2.55;1.52;;;8.40;99.90;;;;;;5040340;28;20041;-77
2022/01/03 07:05:48;;;;;;;8.13;2.08;;;8.40;99.90;;;;;;5040601;28;20115;-77
2022/01/03 07:08:14;;;;;;;17.15;2.75;;;8.40;99.90;;;;;;5038923;28;20048;-76
2022/01/03 07:10:39;;;;;;;4.55;2.05;;;8.40;99.90;;;;;;5039355;28;20455;-76
2022/01/03 07:13:05;;;;;;;5.20;1.73;;;8.40;99.90;;;;;;5040011;28;20084;-77
2022/01/03 07:20:59;;;;;;;2.45;1.40;;;8.40;99.90;;;;;;5039509;28;20156;-76
2022/01/03 07:23:25;;;;;;;10.88;1.55;;;8.40;99.90;;;;;;5039190;28;20755;-77
2022/01/03 07:25:50;;;;;;;9.73;2.17;;;8.40;99.90;;;;;;5039642;28;20037;-76
2022/01/03 07:28:17;;;;;;;11.20;2.10;;;8.40;99.90;;;;;;5039042;28;20043;-77
2022/01/03 07:30:43;;;;;;;11.68;2.03;;;8.40;99.90;;;;;;5022004;28;20037;-76
2022/01/03 07:33:09;;;;;;;10.82;1.52;;;8.30;99.90;;;;;;5019121;28;20095;-77
2022/01/03 07:35:35;;;;;;;13.65;3.50;;;8.30;99.90;;;;;;5020088;28;20483;-77
2022/01/03 07:38:03;;;;;;;13.02;1.85;;;8.30;99.90;;;;;;5016976;28;20041;-76
2022/01/03 07:40:29;;;;;;;8.40;2.72;;;8.30;99.90;;;;;;5019260;28;20052;-76
2022/01/03 07:42:55;;;;;;;27.98;4.28;;;8.30;99.90;;;;;;5019262;28;20033;-77
2022/01/03 07:45:20;;;;;;;8.13;1.52;;;8.30;99.90;;;;;;5020138;28;20037;-76
2022/01/03 07:47:46;;;;;;;12.85;3.00;;;8.30;99.90;;;;;;5018493;28;20052;-76
2022/01/03 07:50:12;;;;;;;4.10;2.03;;;8.30;99.90;;;;;;5018783;28;20486;-77
2022/01/03 07:52:38;;;;;;;15.23;1.95;;;8.30;99.90;;;;;;5018840;28;20080;-76
2022/01/03 07:55:06;;;;;;;7.93;2.53;;;8.30;99.90;;;;;;5019322;28;20646;-76
2022/01/03 07:57:32;;;;;;;3.53;1.55;;;8.30;99.90;;;;;;5019926;28;20072;-77
2022/01/03 07:59:58;;;;;;;21.35;2.78;;;8.30;99.90;;;;;;5019249;28;20045;-77
2022/01/03 08:02:24;;;;;;;31.60;2.85;;;8.30;99.90;;;;;;5018937;28;20048;-77
2022/01/03 08:04:49;;;;;;;8.43;1.67;;;8.30;99.90;;;;;;5019839;28;20041;-76
2022/01/03 08:07:15;;;;;;;20.48;2.30;;;8.30;99.90;;;;;;5018036;28;20053;-77
2022/01/03 08:09:40;;;;;;;2.08;1.98;;;8.30;99.90;;;;;;5019121;28;20115;-77
2022/01/03 08:12:07;;;;;;;4.82;1.65;;;8.30;99.90;;;;;;5018878;28;20056;-76
2022/01/03 08:14:33;;;;;;;16.23;2.75;;;8.30;99.90;;;;;;5018987;28;20103;-76
2022/01/03 08:16:59;;;;;;;7.53;2.33;;;8.30;99.90;;;;;;5017899;28;20500;-76
2022/01/03 08:19:25;;;;;;;4.95;2.35;;;8.30;99.90;;;;;;5019069;28;20053;-76
2022/01/03 08:21:51;;;;;;;9.32;1.13;;;8.30;99.90;;;;;;5017363;28;20045;-77
2022/01/03 08:24:17;;;;;;;18.73;2.25;;;8.30;99.90;;;;;;5019344;28;20342;-76
2022/01/03 08:26:43;;;;;;;17.10;2.40;;;8.30;99.90;;;;;;5019558;28;20106;-76
2022/01/03 08:29:11;;;;;;;3.15;1.75;;;8.30;99.90;;;;;;5028995;28;20034;-76
2022/01/03 08:31:38;;;;;;;13.73;2.92;;;8.30;99.90;;;;;;5018454;28;20041;-76
2022/01/03 08:34:05;;;;;;;15.68;2.35;;;8.30;99.90;;;;;;5018597;28;20042;-76
2022/01/03 08:36:30;;;;;;;5.28;1.05;;;8.30;99.90;;;;;;5019441;28;20225;-76
2022/01/03 08:38:56;;;;;;;7.47;2.47;;;8.30;99.90;;;;;;5017779;28;20502;-77
2022/01/03 08:41:22;;;;;;;20.73;3.00;;;8.40;99.90;;;;;;5018714;28;20048;-77
2022/01/03 08:43:47;;;;;;;5.85;1.38;;;8.40;99.90;;;;;;5019274;28;20049;-76
2022/01/03 08:46:13;;;;;;;16.38;2.70;;;8.40;99.90;;;;;;5021954;28;20045;-76
2022/01/03 08:48:39;;;;;;;24.67;1.92;;;8.40;99.90;;;;;;5022685;28;20065;-76
2022/01/03 08:51:04;;;;;;;19.85;1.92;;;8.40;99.90;;;;;;5021790;28;20052;-76
2022/01/03 08:53:30;;;;;;;2.08;1.10;;;8.40;99.90;;;;;;5021612;28;20115;-76
2022/01/03 08:55:57;;;;;;;12.43;2.83;;;8.40;99.90;;;;;;5022468;28;20505;-77
2022/01/03 08:58:24;;;;;;;21.92;2.90;;;8.40;99.90;;;;;;5020976;28;20510;-77
2022/01/03 09:00:50;;;;;;;4.55;2.35;;;8.40;99.90;;;;;;5022390;28;20045;-76
2022/01/03 09:03:16;;;;;;;4.13;1.75;;;8.40;99.90;;;;;;5023186;28;20754;-76
2022/01/03 09:05:42;;;;;;;2.88;1.80;;;8.40;99.90;;;;;;5045838;28;20051;-76
2022/01/03 09:08:08;;;;;;;15.73;2.90;;;8.40;99.90;;;;;;5062067;28;20044;-77
2022/01/03 09:10:34;;;;;;;8.85;0.95;;;8.40;99.90;;;;;;5049251;28;20033;-81
2022/01/03 09:13:00;;;;;;;18.02;3.15;;;8.40;99.90;;;;;;5042232;28;20155;-81
2022/01/03 09:15:26;;;;;;;5.43;1.42;;;8.40;99.90;;;;;;5042084;28;20049;-81
2022/01/03 09:17:52;;;;;;;3.45;2.42;;;8.40;99.90;;;;;;5024074;28;20084;-83
2022/01/03 09:20:17;;;;;;;4.60;1.30;;;8.40;99.90;;;;;;5059005;28;20049;-82
2022/01/03 09:22:47;;;;;;;22.75;1.85;;;8.50;99.90;;;;;;5056809;28;20127;-78
2022/01/03 09:30:34;;;;;;;8.45;1.88;;;8.50;99.90;;;;;;5042676;28;20526;-82
2022/01/03 09:33:01;;;;;;;3.65;3.03;;;8.50;99.90;;;;;;5041688;28;20391;-80
2022/01/03 09:35:26;;;;;;;37.13;3.85;;;8.50;99.90;;;;;;5042646;28;20285;-80
2022/01/03 09:37:52;;;;;;;10.98;2.08;;;8.50;99.90;;;;;;5046603;28;20646;-79
2022/01/03 09:40:18;;;;;;;2.67;2.22;;;8.50;99.90;;;;;;5036801;28;20454;-79
2022/01/03 09:42:49;;;;;;;1.13;1.13;;;8.60;99.90;;;;;;5057851;28;20362;-79
2022/01/03 09:45:15;;;;;;;40.80;2.67;;;8.60;99.90;;;;;;5044795;28;20347;-80
2022/01/03 09:47:43;;;;;;;2.42;1.08;;;8.60;99.90;;;;;;5054017;28;20316;-80
2022/01/03 09:50:17;;;;;;;6.45;1.23;;;8.60;99.90;;;;;;5044627;28;20049;-79
2022/01/03 09:52:46;;;;;;;5.85;2.10;;;8.60;99.90;;;;;;5040466;28;20951;-79
2022/01/03 09:55:11;;;;;;;5.00;1.33;;;8.60;99.90;;;;;;5044896;28;20099;-79
2022/01/03 09:57:38;;;;;;;1.48;1.40;;;8.60;99.90;;;;;;5040983;28;20073;-79
2022/01/03 10:00:05;;;;;;;17.08;2.70;;;8.60;99.90;;;;;;5039613;28;20435;-80
2022/01/03 10:02:31;;;;;;;8.20;2.20;;;8.60;99.90;;;;;;5039706;28;20060;-80
2022/01/03 10:04:56;;;;;;;10.85;1.52;;;8.60;99.90;;;;;;5045739;28;20049;-79
2022/01/03 10:07:22;;;;;;;10.10;1.70;;;8.70;99.90;;;;;;5038544;28;20048;-81
2022/01/03 10:09:49;;;;;;;9.00;1.83;;;8.70;99.90;;;;;;5042154;28;20037;-80
2022/01/03 10:12:16;;;;;;;10.50;1.40;;;8.70;99.90;;;;;;5041522;28;20422;-80
2022/01/03 10:14:43;;;;;;;3.60;0.93;;;8.60;99.90;;;;;;5040597;28;20151;-80
2022/01/03 10:17:09;;;;;;;3.45;1.55;;;8.70;99.90;;;;;;5039796;28;20514;-81
2022/01/03 10:19:56;;;;;;;22.35;2.28;;;8.70;99.90;;;;;;5041458;28;20045;-80
2022/01/03 10:22:30;;;;;;;4.00;1.98;;;8.70;99.90;;;;;;5039048;28;20045;-80
2022/01/03 10:24:58;;;;;;;16.58;2.17;;;8.70;99.90;;;;;;5041314;28;20041;-81
2022/01/03 10:27:42;;;;;;;14.40;1.85;;;8.70;99.90;;;;;;5051352;28;20083;-80
2022/01/03 10:30:09;;;;;;;9.05;1.15;;;8.70;99.90;;;;;;5042136;28;20064;-80
2022/01/03 10:32:35;;;;;;;6.05;0.85;;;8.70;99.90;;;;;;5054883;28;20446;-77
2022/01/03 10:35:14;;;;;;;13.57;2.90;;;8.80;99.90;;;;;;5060599;28;20090;-78
2022/01/03 10:37:40;;;;;;;3.78;1.92;;;8.70;99.90;;;;;;5039612;28;20040;-77
2022/01/03 10:40:30;;;;;;;19.30;2.15;;;8.80;99.90;;;;;;5035759;28;20791;-77
2022/01/03 10:43:15;;;;;;;5.38;1.42;;;8.80;99.90;;;;;;5028612;28;20055;-77
2022/01/03 10:45:40;;;;;;;5.25;1.02;;;8.80;99.90;;;;;;5031576;28;20518;-77
2022/01/03 10:48:29;;;;;;;17.40;1.75;;;8.80;99.90;;;;;;5061091;28;20127;-77
2022/01/03 10:50:56;;;;;;;6.22;2.55;;;8.80;99.90;;;;;;5059438;28;20286;-77
2022/01/03 10:53:42;;;;;;;3.25;1.08;;;8.80;99.90;;;;;;5033742;28;20756;-78
2022/01/03 10:56:29;;;;;;;10.07;2.53;;;8.80;99.90;;;;;;5030634;28;20134;-77
2022/01/03 10:59:01;;;;;;;8.15;0.90;;;8.80;99.90;;;;;;5032588;28;20609;-77
2022/01/03 11:01:28;;;;;;;22.70;3.55;;;8.90;99.90;;;;;;5028813;28;20433;-78
2022/01/03 11:03:58;;;;;;;4.88;2.22;;;8.90;99.90;;;;;;5030196;28;20517;-77
2022/01/03 11:06:36;;;;;;;7.72;1.80;;;8.90;99.90;;;;;;5028570;28;20049;-77
2022/01/03 11:11:49;;;;;;;9.55;1.73;;;8.90;99.90;;;;;;5030815;28;20065;-80
2022/01/03 11:14:38;;;;;;;12.32;1.58;;;8.90;99.90;;;;;;5031620;28;20035;-79
2022/01/03 11:17:28;;;;;;;27.27;2.80;;;8.90;99.90;;;;;;5036469;28;20049;-78
2022/01/03 11:19:58;;;;;;;22.02;1.55;;;8.90;99.90;;;;;;5033819;28;20082;-81
2022/01/03 11:22:43;;;;;;;12.23;1.95;;;9.00;99.90;;;;;;5038428;28;20037;-78
2022/01/03 11:25:10;;;;;;;24.90;1.75;;;9.00;99.90;;;;;;5043523;28;20072;-77
2022/01/03 11:27:40;;;;;;;24.77;2.63;;;9.00;99.90;;;;;;5048981;28;20049;-77
2022/01/03 11:30:11;;;;;;;15.88;2.15;;;9.00;99.90;;;;;;5051233;28;20076;-76
2022/01/03 11:32:42;;;;;;;11.95;1.65;;;9.00;99.90;;;;;;5044980;28;20047;-76
2022/01/03 11:35:08;;;;;;;14.47;1.80;;;9.00;99.90;;;;;;5043091;28;20429;-77
2022/01/03 11:37:36;;;;;;;7.45;0.98;;;9.00;99.90;;;;;;5038629;28;20037;-77
2022/01/03 11:40:04;;;;;;;22.45;3.00;;;9.00;99.90;;;;;;5026685;28;20406;-77
2022/01/03 11:42:32;;;;;;;19.00;2.17;;;9.10;99.90;;;;;;5059818;28;20457;-78
2022/01/03 11:44:59;;;;;;;5.90;0.75;;;9.10;99.90;;;;;;5058016;28;20140;-77
2022/01/03 11:47:27;;;;;;;9.98;2.05;;;9.10;99.90;;;;;;5039978;28;20124;-77
2022/01/03 11:49:53;;;;;;;23.25;2.35;;;9.10;99.90;;;;;;5040262;28;20566;-78
2022/01/03 11:52:20;;;;;;;16.92;2.28;;;9.10;99.90;;;;;;5040464;28;20095;-77
2022/01/03 11:54:46;;;;;;;10.50;2.45;;;9.10;99.90;;;;;;5039406;28;20045;-77
2022/01/03 11:57:44;;;;;;;19.17;1.92;;;9.20;99.90;;;;;;5040078;28;20380;-76
2022/01/03 12:05:52;;;;;;;1.90;1.20;;;9.20;99.90;;;;;;5035679;28;20060;-78
2022/01/03 12:08:29;;;;;;;7.15;2.60;;;9.20;99.90;;;;;;5031595;28;20049;-77
2022/01/03 12:11:00;;;;;;;10.77;1.00;;;9.20;99.90;;;;;;5042035;28;20040;-77
2022/01/03 12:13:52;;;;;;;9.05;1.27;;;9.20;99.90;;;;;;5037371;28;20037;-76
2022/01/03 12:16:37;;;;;;;29.77;3.83;;;9.20;99.90;;;;;;5032277;28;20052;-76
2022/01/03 12:19:03;;;;;;;0.98;0.93;;;9.20;99.90;;;;;;5050914;28;20525;-77
2022/01/03 12:21:48;;;;;;;21.05;1.20;;;9.30;99.90;;;;;;5042468;28;20066;-76
2022/01/03 12:24:26;;;;;;;9.82;3.33;;;9.30;99.90;;;;;;5062941;28;20036;-76
2022/01/03 12:27:10;;;;;;;18.98;1.80;;;9.30;99.90;;;;;;5052597;28;20052;-77
2022/01/03 12:29:54;;;;;;;7.25;1.70;;;9.30;99.90;;;;;;5036452;28;20140;-77
2022/01/03 12:32:37;;;;;;;12.00;1.33;;;9.30;99.90;;;;;;5023766;28;20077;-77
2022/01/03 12:35:12;;;;;;;34.08;3.53;;;9.30;99.90;;;;;;5034118;28;20686;-77
2022/01/03 12:37:39;;;;;;;6.55;1.38;;;9.30;99.90;;;;;;5036111;28;20088;-78
2022/01/03 12:40:04;;;;;;;13.25;1.48;;;9.30;99.90;;;;;;5057296;28;20037;-79
2022/01/03 12:42:48;;;;;;;15.48;1.15;;;9.30;99.90;;;;;;5044868;28;20075;-78
2022/01/03 12:45:36;;;;;;;16.40;2.60;;;9.30;99.90;;;;;;5045485;28;20395;-80
2022/01/03 12:48:11;;;;;;;20.65;2.20;;;9.30;99.90;;;;;;5038624;28;20105;-78
2022/01/03 12:51:03;;;;;;;12.13;2.63;;;9.30;99.90;;;;;;5046815;28;20044;-75
2022/01/03 12:53:29;;;;;;;7.68;1.67;;;9.30;99.90;;;;;;5061455;28;20122;-75
2022/01/03 12:56:03;;;;;;;14.55;1.60;;;9.30;99.90;;;;;;5047792;28;20437;-76
2022/01/03 12:58:28;;;;;;;1.52;0.95;;;9.30;99.90;;;;;;5039901;28;20048;-76
2022/01/03 13:01:00;;;;;;;1.17;1.13;;;9.30;99.90;;;;;;5033186;28;20156;-74
2022/01/03 13:03:43;;;;;;;9.00;2.95;;;9.30;99.90;;;;;;5041488;28;20507;-76
2022/01/03 13:06:22;;;;;;;7.45;3.03;;;9.30;99.90;;;;;;5043975;28;20054;-75
2022/01/03 13:08:47;;;;;;;11.48;1.08;;;9.30;99.90;;;;;;5043110;28;20132;-75
2022/01/03 13:11:21;;;;;;;9.68;1.92;;;9.30;99.90;;;;;;5051546;28;20139;-76
2022/01/03 13:13:50;;;;;;;10.43;1.38;;;9.30;99.90;;;;;;5060588;28;20090;-75
2022/01/03 13:16:40;;;;;;;8.05;2.58;;;9.30;99.90;;;;;;5064900;28;20040;-75
2022/01/03 13:19:08;;;;;;;7.57;1.88;;;9.30;99.90;;;;;;5045652;28;20537;-75
2022/01/03 13:21:37;;;;;;;3.50;0.88;;;9.30;99.90;;;;;;5050967;28;20049;-75
2022/01/03 13:24:23;;;;;;;1.50;1.40;;;9.30;99.90;;;;;;5046313;28;20037;-75